createdAt,value
2022-07-27T00:00:56.786Z,100079.94
2022-07-27T00:03:24.115Z,100082.59
2022-07-27T00:05:50.736Z,100089.28
2022-07-27T00:08:20.335Z,100078.94
2022-07-27T00:10:46.909Z,100076.81
2022-07-27T00:13:13.421Z,100079.09
2022-07-27T00:15:39.981Z,100079.28
2022-07-27T00:18:06.505Z,100080.50
2022-07-27T00:20:33.148Z,100075.00
2022-07-27T00:22:59.757Z,100078.75
2022-07-27T00:25:27.807Z,100077.19
2022-07-27T00:27:56.814Z,100074.88
2022-07-27T00:30:25.088Z,100084.88
2022-07-27T00:32:52.069Z,100073.72
2022-07-27T00:35:19.224Z,100075.53
2022-07-27T00:37:45.793Z,100086.53
2022-07-27T00:40:12.620Z,100081.00
2022-07-27T00:42:39.287Z,100082.00
2022-07-27T00:45:06.294Z,100088.47
2022-07-27T00:47:33.271Z,100083.22
2022-07-27T00:50:00.252Z,100083.16
2022-07-27T00:52:29.973Z,100084.75
2022-07-27T00:54:57.581Z,100087.00
2022-07-27T00:57:26.018Z,100089.13
2022-07-27T00:59:52.535Z,100078.44
2022-07-27T01:02:20.058Z,100076.09
2022-07-27T01:04:49.704Z,100079.59
2022-07-27T01:07:22.464Z,100085.56
2022-07-27T01:09:59.099Z,100089.50
2022-07-27T01:12:29.013Z,100086.34
2022-07-27T01:14:57.928Z,100088.00
2022-07-27T01:17:26.418Z,100085.69
2022-07-27T01:19:53.528Z,100083.81
2022-07-27T01:22:20.238Z,100088.59
2022-07-27T01:24:47.981Z,100092.34
2022-07-27T01:27:14.655Z,100097.91
2022-07-27T01:29:42.101Z,100088.78
2022-07-27T01:32:08.777Z,100088.13
2022-07-27T01:34:35.838Z,100091.44
2022-07-27T01:37:03.358Z,100088.75
2022-07-27T01:39:30.630Z,100096.09
2022-07-27T01:41:57.571Z,100092.03
2022-07-27T01:44:24.243Z,100084.25
2022-07-27T01:46:51.371Z,100088.84
2022-07-27T01:49:18.409Z,100090.44
2022-07-27T01:51:44.977Z,100092.88
2022-07-27T01:54:11.992Z,100093.88
2022-07-27T01:56:38.535Z,100088.84
2022-07-27T01:59:05.232Z,100094.84
2022-07-27T02:01:31.895Z,100090.78
2022-07-27T02:03:58.540Z,100096.59
2022-07-27T02:06:25.078Z,100100.03
2022-07-27T02:08:51.626Z,100089.38
2022-07-27T02:11:36.859Z,100090.94
2022-07-27T02:14:03.416Z,100095.72
2022-07-27T02:16:30.032Z,100091.31
2022-07-27T02:18:56.626Z,100093.75
2022-07-27T02:21:23.256Z,100099.53
2022-07-27T02:23:49.830Z,100090.91
2022-07-27T02:26:16.384Z,100096.03
2022-07-27T02:28:42.912Z,100091.16
2022-07-27T02:31:09.567Z,100092.66
2022-07-27T02:33:37.127Z,100096.22
2022-07-27T02:36:04.017Z,100101.84
2022-07-27T02:38:30.525Z,100099.47
2022-07-27T02:40:57.203Z,100100.38
2022-07-27T02:43:23.822Z,100099.06
2022-07-27T02:45:51.550Z,100105.75
2022-07-27T02:48:18.119Z,100103.06
2022-07-27T02:50:44.701Z,100101.72
2022-07-27T02:53:11.281Z,100106.84
2022-07-27T02:55:37.822Z,100109.94
2022-07-27T02:58:04.354Z,100110.75
2022-07-27T03:00:31.039Z,100098.22
2022-07-27T03:02:57.632Z,100107.72
2022-07-27T03:05:24.182Z,100106.91
2022-07-27T03:07:50.720Z,100112.00
2022-07-27T03:10:17.270Z,100109.84
2022-07-27T03:12:45.066Z,100104.59
2022-07-27T03:15:11.737Z,100104.28
2022-07-27T03:17:38.306Z,100104.44
2022-07-27T03:20:05.575Z,100108.34
2022-07-27T03:22:35.426Z,100103.28
2022-07-27T03:25:02.037Z,100099.91
2022-07-27T03:27:29.298Z,100096.53
2022-07-27T03:29:56.533Z,100101.09
2022-07-27T03:32:23.137Z,100105.84
2022-07-27T03:34:49.983Z,100107.06
2022-07-27T03:37:19.068Z,100122.66
2022-07-27T03:39:46.283Z,100114.69
2022-07-27T03:42:13.155Z,100111.13
2022-07-27T03:44:39.856Z,100118.28
2022-07-27T03:47:06.434Z,100116.03
2022-07-27T03:49:33.176Z,100107.91
2022-07-27T03:51:59.848Z,100116.53
2022-07-27T03:54:26.642Z,100117.19
2022-07-27T03:56:53.282Z,100109.53
2022-07-27T03:59:19.905Z,100115.47
2022-07-27T04:01:46.855Z,100112.56
2022-07-27T04:04:13.888Z,100116.63
2022-07-27T04:06:40.593Z,100114.41
2022-07-27T04:09:08.874Z,100106.28
2022-07-27T04:11:43.616Z,100121.69
2022-07-27T04:14:17.614Z,100115.59
2022-07-27T04:16:44.152Z,100114.34
2022-07-27T04:19:10.998Z,100114.66
2022-07-27T04:21:38.020Z,100118.72
2022-07-27T04:24:04.969Z,100115.28
2022-07-27T04:26:31.590Z,100122.91
2022-07-27T04:28:58.326Z,100127.47
2022-07-27T04:31:26.845Z,100128.44
2022-07-27T04:33:53.756Z,100128.56
2022-07-27T04:36:20.287Z,100129.34
2022-07-27T04:38:47.005Z,100127.97
2022-07-27T04:41:13.571Z,100120.44
2022-07-27T04:43:40.122Z,100126.44
2022-07-27T04:46:10.544Z,100128.47
2022-07-27T04:48:39.911Z,100121.00
2022-07-27T04:51:08.130Z,100118.34
2022-07-27T04:53:35.908Z,100125.84
2022-07-27T04:56:02.472Z,100125.75
2022-07-27T04:58:29.031Z,100123.19
2022-07-27T05:00:55.586Z,100125.25
2022-07-27T05:03:22.160Z,100126.63
2022-07-27T05:05:50.221Z,100124.31
2022-07-27T05:08:18.237Z,100134.56
2022-07-27T05:10:45.000Z,100128.59
2022-07-27T05:13:13.263Z,100131.59
2022-07-27T05:15:55.009Z,100135.81
2022-07-27T05:18:23.467Z,100137.13
2022-07-27T05:20:50.029Z,100142.59
2022-07-27T05:23:17.684Z,100136.00
2022-07-27T05:25:44.432Z,100144.69
2022-07-27T05:28:14.100Z,100142.66
2022-07-27T05:30:40.891Z,100144.88
2022-07-27T05:33:07.577Z,100142.22
2022-07-27T05:35:34.213Z,100145.94
2022-07-27T05:38:00.797Z,100149.13
2022-07-27T05:40:27.517Z,100150.66
2022-07-27T05:42:54.250Z,100149.84
2022-07-27T05:45:21.227Z,100154.50
2022-07-27T05:47:47.823Z,100160.22
2022-07-27T05:50:15.620Z,100157.91
2022-07-27T05:52:43.536Z,100161.94
2022-07-27T05:55:10.328Z,100168.47
2022-07-27T05:57:37.828Z,100159.28
2022-07-27T06:00:08.727Z,100164.34
2022-07-27T06:02:35.351Z,100163.13
2022-07-27T06:05:02.387Z,100169.25
2022-07-27T06:07:49.368Z,100169.75
2022-07-27T06:10:17.061Z,100176.72
2022-07-27T06:12:46.040Z,100183.69
2022-07-27T06:15:14.259Z,100183.28
2022-07-27T06:17:41.217Z,100183.72
2022-07-27T06:20:10.289Z,100182.69
2022-07-27T06:22:51.527Z,100187.94
2022-07-27T06:25:19.603Z,100195.13
2022-07-27T06:27:46.455Z,100186.06
2022-07-27T06:30:15.203Z,100185.84
2022-07-27T06:32:42.254Z,100178.72
2022-07-27T06:35:12.545Z,100185.25
2022-07-27T06:37:44.056Z,100179.78
2022-07-27T06:40:14.174Z,100186.94
2022-07-27T06:42:41.676Z,100194.91
2022-07-27T06:45:09.115Z,100192.97
2022-07-27T06:47:36.018Z,100187.91
2022-07-27T06:50:16.213Z,100176.50
2022-07-27T06:52:43.631Z,100182.59
2022-07-27T06:55:10.710Z,100176.88
2022-07-27T06:57:37.243Z,100185.06
2022-07-27T07:00:06.330Z,100173.63
2022-07-27T07:02:32.887Z,100176.97
2022-07-27T07:04:59.475Z,100175.00
2022-07-27T07:07:26.012Z,100184.88
2022-07-27T07:09:52.513Z,100172.59
2022-07-27T07:12:19.128Z,100178.44
2022-07-27T07:14:45.731Z,100168.31
2022-07-27T07:17:12.275Z,100176.63
2022-07-27T07:19:38.834Z,100165.16
2022-07-27T07:22:05.382Z,100179.00
2022-07-27T07:24:31.983Z,100166.66
2022-07-27T07:26:58.804Z,100162.78
2022-07-27T07:29:25.367Z,100165.28
2022-07-27T07:31:52.017Z,100163.28
2022-07-27T07:34:18.683Z,100165.13
2022-07-27T07:36:47.781Z,100154.50
2022-07-27T07:39:14.787Z,100159.91
2022-07-27T07:41:41.962Z,100153.72
2022-07-27T07:44:10.070Z,100154.25
2022-07-27T07:46:37.100Z,100148.44
2022-07-27T07:49:04.814Z,100153.03
2022-07-27T07:51:32.161Z,100162.00
2022-07-27T07:53:59.163Z,100153.22
2022-07-27T07:56:25.752Z,100144.88
2022-07-27T07:58:52.286Z,100149.47
2022-07-27T08:01:19.211Z,100148.75
2022-07-27T08:03:50.617Z,100154.44
2022-07-27T08:06:17.497Z,100156.59
2022-07-27T08:08:44.040Z,100145.44
2022-07-27T08:11:10.636Z,100140.31
2022-07-27T08:13:37.332Z,100138.44
2022-07-27T08:16:04.105Z,100130.41
2022-07-27T08:18:30.756Z,100138.56
2022-07-27T08:20:57.349Z,100138.72
2022-07-27T08:23:24.148Z,100142.78
2022-07-27T08:25:50.703Z,100140.75
2022-07-27T08:28:17.241Z,100142.28
2022-07-27T08:30:44.759Z,100135.13
2022-07-27T08:33:11.539Z,100136.41
2022-07-27T08:35:38.160Z,100133.06
2022-07-27T08:38:06.981Z,100128.00
2022-07-27T08:40:40.259Z,100132.91
2022-07-27T08:43:10.116Z,100135.97
2022-07-27T08:45:37.727Z,100131.53
2022-07-27T08:48:05.068Z,100140.56
2022-07-27T08:50:33.713Z,100138.03
2022-07-27T08:53:05.727Z,100127.44
2022-07-27T08:55:34.332Z,100129.38
2022-07-27T08:58:03.437Z,100128.75
2022-07-27T09:00:31.752Z,100114.59
2022-07-27T09:02:58.818Z,100125.31
2022-07-27T09:05:25.821Z,100121.03
2022-07-27T09:08:18.185Z,100124.06
2022-07-27T09:10:44.774Z,100115.66
2022-07-27T09:13:19.155Z,100118.84
2022-07-27T09:16:16.915Z,100118.63
2022-07-27T09:18:39.461Z,100115.13
2022-07-27T09:21:12.004Z,100123.28
2022-07-27T09:23:40.227Z,100123.94
2022-07-27T09:26:34.527Z,100121.28
2022-07-27T09:29:15.666Z,100117.56
2022-07-27T09:31:43.686Z,100106.59
2022-07-27T09:34:12.017Z,100116.59
2022-07-27T09:36:53.042Z,100110.03
2022-07-27T09:39:21.851Z,100116.53
2022-07-27T09:41:50.999Z,100115.25
2022-07-27T09:44:43.405Z,100114.84
2022-07-27T09:47:28.133Z,100110.31
2022-07-27T09:50:15.652Z,100114.00
2022-07-27T09:52:44.073Z,100108.28
2022-07-27T09:55:10.754Z,100110.28
2022-07-27T09:57:53.252Z,100107.28
2022-07-27T10:00:20.252Z,100100.66
2022-07-27T10:02:47.969Z,100113.81
2022-07-27T10:05:18.192Z,100112.47
2022-07-27T10:07:45.217Z,100109.75
2022-07-27T10:10:14.521Z,100104.28
2022-07-27T10:12:49.194Z,100107.66
2022-07-27T10:15:18.718Z,100104.13
2022-07-27T10:17:46.712Z,100100.81
2022-07-27T10:20:17.141Z,100101.97
2022-07-27T10:23:01.161Z,100107.28
2022-07-27T10:25:37.341Z,100103.41
2022-07-27T10:28:09.623Z,100104.00
2022-07-27T10:30:36.637Z,100102.91
2022-07-27T10:33:32.056Z,100100.41
2022-07-27T10:35:58.603Z,100102.38
2022-07-27T10:38:46.740Z,100098.19
2022-07-27T10:41:40.650Z,100096.00
2022-07-27T10:44:20.975Z,100085.97
2022-07-27T10:47:02.178Z,100087.34
2022-07-27T10:49:32.395Z,100081.75
2022-07-27T10:52:01.201Z,100084.50
2022-07-27T10:54:32.477Z,100073.63
2022-07-27T10:57:00.583Z,100072.50
2022-07-27T11:02:42.234Z,100074.06
2022-07-27T11:05:53.863Z,100072.91
2022-07-27T11:08:35.751Z,100070.31
2022-07-27T11:10:47.362Z,100057.41
2022-07-27T11:13:14.498Z,100057.31
2022-07-27T11:15:59.823Z,100056.03
2022-07-27T11:18:34.371Z,100061.81
2022-07-27T11:21:26.781Z,100056.09
2022-07-27T11:23:56.666Z,100048.44
2022-07-27T11:26:25.991Z,100047.59
2022-07-27T11:28:53.990Z,100045.28
2022-07-27T11:31:38.669Z,100044.81
2022-07-27T11:34:08.127Z,100043.72
2022-07-27T11:36:37.824Z,100043.84
2022-07-27T11:39:06.804Z,100043.72
2022-07-27T11:42:08.953Z,100051.66
2022-07-27T11:44:21.975Z,100048.19
2022-07-27T11:46:50.248Z,100043.22
2022-07-27T11:49:26.550Z,100046.94
2022-07-27T11:51:57.897Z,100039.31
2022-07-27T11:54:33.587Z,100048.97
2022-07-27T11:57:05.667Z,100048.50
2022-07-27T11:59:38.321Z,100046.91
2022-07-27T12:02:09.324Z,100050.56
2022-07-27T12:04:38.707Z,100045.59
2022-07-27T12:07:07.734Z,100044.75
2022-07-27T12:09:39.199Z,100035.66
2022-07-27T12:12:08.543Z,100036.28
2022-07-27T12:14:37.060Z,100031.28
2022-07-27T12:17:33.864Z,100026.47
2022-07-27T12:20:13.895Z,100023.06
2022-07-27T12:22:49.574Z,100016.88
2022-07-27T12:25:18.933Z,100027.13
2022-07-27T12:28:01.414Z,100015.69
2022-07-27T12:30:33.221Z,100011.97
2022-07-27T12:33:00.768Z,100016.53
2022-07-27T12:35:37.316Z,100012.88
2022-07-27T12:38:07.962Z,100011.47
2022-07-27T12:40:42.573Z,100011.84
2022-07-27T12:43:09.840Z,100009.16
2022-07-27T12:45:38.297Z,100004.03
2022-07-27T12:48:06.559Z,100007.03
2022-07-27T12:50:33.345Z,100011.63
2022-07-27T12:53:00.015Z,99999.31
2022-07-27T12:55:26.531Z,100003.50
2022-07-27T12:57:57.120Z,99999.81
2022-07-27T13:00:31.073Z,100005.53
2022-07-27T13:03:01.608Z,99996.91
2022-07-27T13:05:28.257Z,99990.22
2022-07-27T13:07:54.857Z,99987.66
2022-07-27T13:10:22.208Z,99982.91
2022-07-27T13:12:49.474Z,99974.03
2022-07-27T13:15:16.822Z,99980.53
2022-07-27T13:17:44.708Z,99972.34
2022-07-27T13:20:12.540Z,99971.16
2022-07-27T13:22:40.781Z,99969.50
2022-07-27T13:25:15.975Z,99970.94
2022-07-27T13:27:45.353Z,99965.22
2022-07-27T13:30:13.402Z,99965.03
2022-07-27T13:32:41.377Z,99967.78
2022-07-27T13:35:09.839Z,99967.63
2022-07-27T13:37:36.643Z,99961.06
2022-07-27T13:40:04.740Z,99959.00
2022-07-27T13:42:31.453Z,99951.66
2022-07-27T13:45:08.579Z,99948.88
2022-07-27T13:47:35.614Z,99943.81
2022-07-27T13:50:03.365Z,99940.28
2022-07-27T13:52:30.128Z,99949.63
2022-07-27T13:54:56.666Z,99940.41
2022-07-27T13:57:23.596Z,99938.13
2022-07-27T13:59:50.137Z,99936.66
2022-07-27T14:02:16.700Z,99943.34
2022-07-27T14:04:49.876Z,99938.50
2022-07-27T14:07:17.052Z,99938.81
2022-07-27T14:10:02.745Z,99940.47
2022-07-27T14:12:29.527Z,99933.97
2022-07-27T14:14:57.404Z,99924.81
2022-07-27T14:17:24.008Z,99929.69
2022-07-27T14:19:50.527Z,99936.03
2022-07-27T14:22:17.092Z,99930.53
2022-07-27T14:24:43.703Z,99932.00
2022-07-27T14:27:10.410Z,99918.59
2022-07-27T14:29:37.121Z,99920.72
2022-07-27T14:32:04.112Z,99916.16
2022-07-27T14:34:30.768Z,99905.81
2022-07-27T14:36:57.798Z,99912.25
2022-07-27T14:39:24.409Z,99909.91
2022-07-27T14:41:50.994Z,99907.41
2022-07-27T14:44:18.884Z,99903.16
2022-07-27T14:46:46.212Z,99901.41
2022-07-27T14:49:14.621Z,99903.16
2022-07-27T14:51:41.213Z,99908.69
2022-07-27T14:54:08.003Z,99906.22
2022-07-27T14:56:36.501Z,99904.44
2022-07-27T14:59:04.243Z,99903.41
2022-07-27T15:01:31.012Z,99901.22
2022-07-27T15:03:57.781Z,99894.50
2022-07-27T15:06:24.383Z,99893.16
2022-07-27T15:08:50.883Z,99890.69
2022-07-27T15:11:17.527Z,99889.34
2022-07-27T15:13:44.054Z,99882.84
2022-07-27T15:16:11.958Z,99884.03
2022-07-27T15:18:39.193Z,99893.75
2022-07-27T15:21:13.607Z,99893.25
2022-07-27T15:23:42.418Z,99888.97
2022-07-27T15:26:08.967Z,99880.47
2022-07-27T15:28:36.435Z,99881.22
2022-07-27T15:31:03.301Z,99881.88
2022-07-27T15:33:29.995Z,99889.63
2022-07-27T15:35:56.870Z,99878.09
2022-07-27T15:38:23.491Z,99890.69
2022-07-27T15:40:50.294Z,99883.78
2022-07-27T15:43:18.345Z,99882.44
2022-07-27T15:45:50.827Z,99881.56
2022-07-27T15:48:19.732Z,99887.94
2022-07-27T15:50:51.783Z,99884.28
2022-07-27T15:53:20.860Z,99879.34
2022-07-27T15:55:48.214Z,99885.63
2022-07-27T15:58:18.967Z,99885.13
2022-07-27T16:00:49.512Z,99879.75
2022-07-27T16:03:17.399Z,99887.00
2022-07-27T16:05:47.655Z,99891.72
2022-07-27T16:08:15.481Z,99891.00
2022-07-27T16:10:43.384Z,99883.16
2022-07-27T16:13:12.658Z,99885.34
2022-07-27T16:15:59.950Z,99883.34
2022-07-27T16:18:27.634Z,99884.41
2022-07-27T16:20:54.559Z,99889.53
2022-07-27T16:23:22.301Z,99882.63
2022-07-27T16:26:04.379Z,99886.34
2022-07-27T16:28:33.303Z,99888.41
2022-07-27T16:30:59.952Z,99901.88
2022-07-27T16:33:26.516Z,99896.25
2022-07-27T16:35:53.171Z,99894.16
2022-07-27T16:38:19.734Z,99897.66
2022-07-27T16:40:46.247Z,99898.38
2022-07-27T16:43:12.802Z,99901.34
2022-07-27T16:45:39.471Z,99904.53
2022-07-27T16:48:06.329Z,99908.34
2022-07-27T16:50:32.933Z,99911.47
2022-07-27T16:53:01.369Z,99902.44
2022-07-27T16:55:28.313Z,99907.25
2022-07-27T16:57:55.885Z,99902.59
2022-07-27T17:00:22.720Z,99906.50
2022-07-27T17:02:49.245Z,99909.31
2022-07-27T17:05:16.064Z,99910.19
2022-07-27T17:07:43.016Z,99913.50
2022-07-27T17:10:09.993Z,99917.41
2022-07-27T17:12:38.748Z,99919.66
2022-07-27T17:15:06.667Z,99913.56
2022-07-27T17:17:33.231Z,99913.00
2022-07-27T17:19:59.907Z,99921.63
2022-07-27T17:22:26.485Z,99910.28
2022-07-27T17:24:53.157Z,99914.44
2022-07-27T17:27:19.663Z,99919.44
2022-07-27T17:29:46.296Z,99928.88
2022-07-27T17:32:12.892Z,99940.81
2022-07-27T17:34:41.538Z,99941.31
2022-07-27T17:37:08.207Z,99946.00
2022-07-27T17:39:35.438Z,99942.63
2022-07-27T17:42:02.136Z,99941.75
2022-07-27T17:44:28.849Z,99948.59
2022-07-27T17:46:55.550Z,99941.38
2022-07-27T17:49:22.209Z,99944.38
2022-07-27T17:51:48.922Z,99944.31
2022-07-27T17:54:15.525Z,99943.47
2022-07-27T17:56:42.106Z,99946.72
2022-07-27T17:59:34.671Z,99941.41
2022-07-27T18:01:56.646Z,99940.16
2022-07-27T18:04:23.433Z,99941.25
2022-07-27T18:06:50.131Z,99940.09
2022-07-27T18:09:17.359Z,99938.06
2022-07-27T18:11:44.545Z,99934.69
2022-07-27T18:14:11.536Z,99945.69
2022-07-27T18:16:40.685Z,99950.63
2022-07-27T18:19:08.329Z,99955.03
2022-07-27T18:21:35.378Z,99949.44
2022-07-27T18:24:02.248Z,99952.38
2022-07-27T18:26:28.758Z,99955.66
2022-07-27T18:28:57.633Z,99967.50
2022-07-27T18:31:24.538Z,99961.66
2022-07-27T18:33:54.356Z,99969.41
2022-07-27T18:36:21.616Z,99965.22
2022-07-27T18:38:51.433Z,99980.41
2022-07-27T18:41:19.127Z,99977.63
2022-07-27T18:43:51.570Z,99981.75
2022-07-27T18:46:22.393Z,99983.34
2022-07-27T18:48:49.899Z,99993.28
2022-07-27T18:51:16.728Z,100002.91
2022-07-27T18:53:44.177Z,100015.56
2022-07-27T18:56:12.198Z,100018.78
2022-07-27T18:58:38.838Z,100022.56
2022-07-27T19:01:05.409Z,100021.34
2022-07-27T19:03:32.197Z,100035.94
2022-07-27T19:05:59.000Z,100036.59
2022-07-27T19:08:25.653Z,100030.09
2022-07-27T19:10:52.531Z,100034.72
2022-07-27T19:13:19.136Z,100040.31
2022-07-27T19:15:45.834Z,100051.53
2022-07-27T19:18:14.505Z,100050.63
2022-07-27T19:20:41.491Z,100071.28
2022-07-27T19:23:08.028Z,100069.84
2022-07-27T19:25:34.683Z,100075.38
2022-07-27T19:28:02.835Z,100074.28
2022-07-27T19:30:29.826Z,100078.97
2022-07-27T19:32:56.508Z,100094.13
2022-07-27T19:35:23.236Z,100087.75
2022-07-27T19:37:49.768Z,100096.25
2022-07-27T19:43:04.580Z,100099.22
2022-07-27T19:45:31.666Z,100090.81
2022-07-27T19:47:59.501Z,100088.03
2022-07-27T19:50:26.228Z,100099.56
2022-07-27T19:52:53.418Z,100104.75
2022-07-27T19:55:20.089Z,100106.94
2022-07-27T19:57:46.696Z,100109.59
2022-07-27T20:00:13.738Z,100117.28
2022-07-27T20:02:40.448Z,100113.59
2022-07-27T20:05:07.758Z,100109.06
2022-07-27T20:07:35.473Z,100115.66
2022-07-27T20:10:01.979Z,100114.22
2022-07-27T20:12:28.537Z,100122.16
2022-07-27T20:14:55.083Z,100126.47
2022-07-27T20:17:21.678Z,100124.94
2022-07-27T20:19:48.266Z,100123.16
2022-07-27T20:22:14.819Z,100117.72
2022-07-27T20:24:41.354Z,100114.22
2022-07-27T20:27:07.928Z,100119.63
2022-07-27T20:29:35.563Z,100121.66
2022-07-27T20:32:02.197Z,100116.31
2022-07-27T20:34:28.810Z,100117.28
2022-07-27T20:36:55.941Z,100125.41
2022-07-27T20:39:25.381Z,100118.59
2022-07-27T20:41:52.265Z,100125.69
2022-07-27T20:44:20.814Z,100126.88
2022-07-27T20:46:47.617Z,100125.66
2022-07-27T20:49:14.617Z,100131.47
2022-07-27T20:51:42.145Z,100122.88
2022-07-27T20:54:08.730Z,100122.63
2022-07-27T20:56:35.347Z,100117.94
2022-07-27T20:59:03.680Z,100119.88
2022-07-27T21:01:35.469Z,100121.19
2022-07-27T21:04:02.188Z,100114.72
2022-07-27T21:06:30.120Z,100123.22
2022-07-27T21:08:56.861Z,100119.28
2022-07-27T21:11:23.522Z,100127.75
2022-07-27T21:13:50.064Z,100122.97
2022-07-27T21:16:16.634Z,100131.09
2022-07-27T21:18:43.284Z,100142.09
2022-07-27T21:21:09.824Z,100143.88
2022-07-27T21:23:54.975Z,100161.94
2022-07-27T21:26:21.735Z,100170.63
2022-07-27T21:28:49.787Z,100166.44
2022-07-27T21:31:16.371Z,100162.03
2022-07-27T21:33:43.006Z,100173.25
2022-07-27T21:36:11.076Z,100174.09
2022-07-27T21:38:37.607Z,100185.09
2022-07-27T21:41:04.296Z,100179.00
2022-07-27T21:43:31.950Z,100188.31
2022-07-27T21:45:58.566Z,100191.31
2022-07-27T21:48:25.282Z,100190.47
2022-07-27T21:50:52.267Z,100193.44
2022-07-27T21:53:19.344Z,100197.50
2022-07-27T21:55:46.364Z,100204.06
2022-07-27T21:58:13.299Z,100200.50
2022-07-27T22:00:39.903Z,100208.75
2022-07-27T22:03:06.988Z,100208.97
2022-07-27T22:05:34.092Z,100208.75
2022-07-27T22:08:00.910Z,100214.25
2022-07-27T22:10:28.630Z,100207.53
2022-07-27T22:12:55.435Z,100207.97
2022-07-27T22:15:21.951Z,100207.56
2022-07-27T22:17:50.879Z,100213.78
2022-07-27T22:20:19.770Z,100208.50
2022-07-27T22:22:47.203Z,100210.16
2022-07-27T22:25:14.718Z,100213.16
2022-07-27T22:27:41.896Z,100210.03
2022-07-27T22:30:09.156Z,100213.84
2022-07-27T22:32:36.058Z,100210.50
2022-07-27T22:35:03.286Z,100209.03
2022-07-27T22:37:29.896Z,100215.25
2022-07-27T22:39:56.405Z,100219.06
2022-07-27T22:42:23.137Z,100219.88
2022-07-27T22:44:49.666Z,100217.63
2022-07-27T22:47:16.271Z,100218.66
2022-07-27T22:49:42.813Z,100217.63
2022-07-27T22:52:09.382Z,100209.00
2022-07-27T22:54:37.486Z,100208.13
2022-07-27T22:57:05.852Z,100214.72
2022-07-27T22:59:33.307Z,100195.09
2022-07-27T23:02:00.151Z,100195.91
2022-07-27T23:04:26.742Z,100193.41
2022-07-27T23:06:53.305Z,100189.81
2022-07-27T23:09:20.060Z,100183.47
2022-07-27T23:11:47.932Z,100183.72
2022-07-27T23:14:16.130Z,100180.34
2022-07-27T23:16:50.136Z,100176.16
2022-07-27T23:19:17.598Z,100188.69
2022-07-27T23:21:44.128Z,100181.75
2022-07-27T23:24:11.546Z,100188.28
2022-07-27T23:26:41.024Z,100189.56
2022-07-27T23:29:07.808Z,100188.16
2022-07-27T23:31:34.946Z,100196.63
2022-07-27T23:34:01.604Z,100193.66
2022-07-27T23:36:28.199Z,100197.44
2022-07-27T23:38:54.766Z,100192.19
2022-07-27T23:41:21.402Z,100194.94
2022-07-27T23:43:47.983Z,100192.19
2022-07-27T23:46:14.615Z,100193.50
2022-07-27T23:48:41.471Z,100194.53
2022-07-27T23:51:08.929Z,100187.63
2022-07-27T23:53:35.474Z,100185.09
2022-07-27T23:56:02.215Z,100189.72
2022-07-27T23:58:29.596Z,100181.72
